ADDS METAR Data INFO
IDs: Format: Raw Decoded Include TAF

Data at: 1523 UTC 18 Jun 2018

PAZK 181456Z AUTO 07015G24KT 10SM -RA SCT005 BKN037 OVC055 07/06 A2979 RMK AO2 SLP105 P0000 60000 T00670061 58016
PAZK 181422Z AUTO 05009KT 10SM -RA FEW003 SCT008 OVC060 07/06 A2981 RMK AO2 P0000
PAZK 181356Z AUTO 04009KT 10SM -RA OVC065 07/06 A2981 RMK AO2 RAB05 SLP111 P0000 T00670056
PAZK 181256Z AUTO 33007KT 10SM CLR 07/04 A2984 RMK AO2 RAB11E26 SLP121 P0000 T00670039
PAZK 181156Z AUTO 34008KT 10SM CLR 07/03 A2984 RMK AO2 SLP120 T00720028 10106 20067 56005
PAZK 181056Z AUTO 33007KT 10SM CLR 07/03 A2984 RMK AO2 SLP121 T00720033
PAZK 180856Z AUTO 01006KT 10SM CLR 07/02 A2986 RMK AO2 SLP129 T00720022 58009
PAZK 180656Z AUTO 08008KT 10SM FEW110 10/01 A2988 RMK AO2 SLP135 T01000011
PAZK 180556Z AUTO 06006KT 10SM FEW100 11/01 A2989 RMK AO2 SLP137 T01060006 10156 20106 56007
PAZK 180456Z AUTO 09007KT 10SM CLR 12/M01 A2989 RMK AO2 SLP139 T01171006
PAZK 180356Z AUTO 12006KT 10SM CLR 13/M01 A2990 RMK AO2 SLP142 T01281006
PAZK 180156Z AUTO 13008G15KT 10SM FEW110 16/M01 A2991 RMK AO2 SLP145 T01561006
PAZK 180056Z AUTO 20009KT 10SM CLR 15/M01 A2991 RMK AO2 SLP148 T01501011
PAZK 172256Z AUTO 20008KT 10SM CLR 15/M01 A2991 RMK AO2 SLP145 T01501006
PAZK 172156Z AUTO VRB05KT 10SM CLR 14/00 A2991 RMK AO2 SLP149 T01390000
PAZK 171856Z AUTO 14010G15KT 110V170 10SM FEW050 SCT080 13/M01 A2988 RMK AO2 SLP134 T01331006
PAZK 171756Z AUTO VRB03KT 10SM BKN039 12/02 A2987 RMK AO2 SLP134 T01170017 10117 20050 51010
PAZK 171556Z AUTO 19003KT 10SM CLR 09/02 A2985 RMK AO2 SLP126 T00890022
PAZK 171456Z AUTO 21005KT 10SM CLR 07/02 A2984 RMK AO2 SLP122 T00720017 53009
PAZK 171256Z AUTO 00000KT 10SM CLR 06/01 A2981 RMK AO2 SLP117 T00560011
PAZK 171156Z AUTO 00000KT 10SM CLR 06/02 A2981 RMK AO2 SLP115 T00610017 10094 20056 51008
PAZK 171056Z AUTO 25003KT 10SM CLR 07/02 A2980 RMK AO2 SLP111 T00670017
PAZK 170856Z AUTO 00000KT 10SM BKN120 08/02 A2978 RMK AO2 SLP102 T00780017 51011
PAZK 170756Z AUTO 25003KT 10SM CLR 08/01 A2977 RMK AO2 SLP098 T00830011 401560033
PAZK 170656Z AUTO 19004KT 10SM CLR 09/01 A2976 RMK AO2 SLP095 T00940006
PAZK 170556Z AUTO 14005KT 10SM CLR 09/01 A2975 RMK AO2 SLP097 T00940006 10156 20094 53004
PAZK 170456Z AUTO 14007KT 10SM CLR 11/01 A2973 RMK AO2 SLP089 T01060006
PAZK 170356Z AUTO 12010KT 10SM CLR 13/01 A2973 RMK AO2 SLP089 T01280006